sensor_id;sensor_type;location;lat;lon;timestamp;pressure;altitude;pressure_sealevel;temperature;humidity
15568;BME280;7885;42.596;23.044;2022-11-09T00:00:49;93524.75;;;8.97;86.04
15568;BME280;7885;42.596;23.044;2022-11-09T00:03:17;93528.50;;;8.86;86.19
15568;BME280;7885;42.596;23.044;2022-11-09T00:05:53;93527.53;;;8.71;86.18
15568;BME280;7885;42.596;23.044;2022-11-09T00:08:20;93490.63;;;8.37;85.00
15568;BME280;7885;42.596;23.044;2022-11-09T00:10:46;93493.00;;;8.42;86.29
15568;BME280;7885;42.596;23.044;2022-11-09T00:13:13;93504.28;;;8.44;87.08
15568;BME280;7885;42.596;23.044;2022-11-09T00:15:40;93524.22;;;8.55;87.83
15568;BME280;7885;42.596;23.044;2022-11-09T00:18:07;93469.78;;;8.18;89.41
15568;BME280;7885;42.596;23.044;2022-11-09T00:20:35;93512.72;;;8.39;90.28
15568;BME280;7885;42.596;23.044;2022-11-09T00:23:01;93519.28;;;8.38;92.23
15568;BME280;7885;42.596;23.044;2022-11-09T00:25:28;93501.28;;;8.26;92.55
15568;BME280;7885;42.596;23.044;2022-11-09T00:27:55;93511.53;;;8.36;91.40
15568;BME280;7885;42.596;23.044;2022-11-09T00:30:22;93513.41;;;8.32;87.90
15568;BME280;7885;42.596;23.044;2022-11-09T00:32:48;93516.91;;;8.33;85.98
15568;BME280;7885;42.596;23.044;2022-11-09T00:35:15;93526.97;;;8.32;84.14
15568;BME280;7885;42.596;23.044;2022-11-09T00:37:43;93522.97;;;8.26;86.82
15568;BME280;7885;42.596;23.044;2022-11-09T00:40:10;93526.44;;;8.23;85.65
15568;BME280;7885;42.596;23.044;2022-11-09T00:42:38;93533.72;;;8.19;88.22
15568;BME280;7885;42.596;23.044;2022-11-09T00:45:05;93498.56;;;8.00;88.60
15568;BME280;7885;42.596;23.044;2022-11-09T00:47:32;93501.25;;;8.00;88.90
15568;BME280;7885;42.596;23.044;2022-11-09T00:49:59;93528.19;;;8.12;85.11
15568;BME280;7885;42.596;23.044;2022-11-09T00:52:26;93527.28;;;8.04;86.43
15568;BME280;7885;42.596;23.044;2022-11-09T00:54:54;93526.50;;;8.04;88.23
15568;BME280;7885;42.596;23.044;2022-11-09T00:57:21;93504.47;;;7.83;89.61
15568;BME280;7885;42.596;23.044;2022-11-09T00:59:47;93526.38;;;7.97;90.66
15568;BME280;7885;42.596;23.044;2022-11-09T01:02:14;93508.88;;;7.91;89.39
15568;BME280;7885;42.596;23.044;2022-11-09T01:04:41;93511.69;;;7.98;90.26
15568;BME280;7885;42.596;23.044;2022-11-09T01:07:07;93481.97;;;7.79;93.71
15568;BME280;7885;42.596;23.044;2022-11-09T01:09:34;93503.03;;;7.89;88.33
15568;BME280;7885;42.596;23.044;2022-11-09T01:12:03;93483.06;;;7.74;93.49
15568;BME280;7885;42.596;23.044;2022-11-09T01:14:30;93476.56;;;7.79;93.33
15568;BME280;7885;42.596;23.044;2022-11-09T01:16:57;93514.13;;;8.03;91.59
15568;BME280;7885;42.596;23.044;2022-11-09T01:19:24;93517.44;;;7.93;84.93
15568;BME280;7885;42.596;23.044;2022-11-09T01:21:51;93518.81;;;7.83;86.95
15568;BME280;7885;42.596;23.044;2022-11-09T01:24:17;93521.50;;;7.83;87.48
15568;BME280;7885;42.596;23.044;2022-11-09T01:26:44;93517.63;;;7.81;87.93
15568;BME280;7885;42.596;23.044;2022-11-09T01:29:12;93520.56;;;7.72;86.08
15568;BME280;7885;42.596;23.044;2022-11-09T01:31:39;93516.22;;;7.68;87.90
15568;BME280;7885;42.596;23.044;2022-11-09T01:34:06;93509.25;;;7.67;90.69
15568;BME280;7885;42.596;23.044;2022-11-09T01:36:32;93516.66;;;7.70;91.32
15568;BME280;7885;42.596;23.044;2022-11-09T01:38:59;93504.25;;;7.69;91.13
15568;BME280;7885;42.596;23.044;2022-11-09T01:41:27;93502.31;;;7.69;90.20
15568;BME280;7885;42.596;23.044;2022-11-09T01:44:08;93494.00;;;7.58;89.56
15568;BME280;7885;42.596;23.044;2022-11-09T01:46:41;93502.56;;;7.60;88.11
15568;BME280;7885;42.596;23.044;2022-11-09T01:52:49;93502.84;;;7.55;92.18
15568;BME280;7885;42.596;23.044;2022-11-09T01:55:18;93510.22;;;7.55;92.65
15568;BME280;7885;42.596;23.044;2022-11-09T01:57:51;93483.28;;;7.43;93.48
15568;BME280;7885;42.596;23.044;2022-11-09T02:00:19;93508.66;;;7.54;93.92
15568;BME280;7885;42.596;23.044;2022-11-09T02:02:50;93508.28;;;7.55;90.96
15568;BME280;7885;42.596;23.044;2022-11-09T02:05:21;93512.56;;;7.56;90.36
15568;BME280;7885;42.596;23.044;2022-11-09T02:07:49;93509.91;;;7.60;89.48
15568;BME280;7885;42.596;23.044;2022-11-09T02:10:21;93475.66;;;7.26;86.41
15568;BME280;7885;42.596;23.044;2022-11-09T02:23:02;93516.13;;;7.41;88.66
15568;BME280;7885;42.596;23.044;2022-11-09T02:25:29;93513.69;;;7.33;87.94
15568;BME280;7885;42.596;23.044;2022-11-09T02:27:55;93527.56;;;7.31;87.15
15568;BME280;7885;42.596;23.044;2022-11-09T02:30:22;93471.69;;;7.00;88.12
15568;BME280;7885;42.596;23.044;2022-11-09T02:32:49;93525.88;;;7.23;88.19
15568;BME280;7885;42.596;23.044;2022-11-09T02:35:16;93519.69;;;7.23;88.23
15568;BME280;7885;42.596;23.044;2022-11-09T02:37:46;93522.72;;;7.21;88.42
15568;BME280;7885;42.596;23.044;2022-11-09T02:40:21;93515.91;;;7.08;87.23
15568;BME280;7885;42.596;23.044;2022-11-09T02:42:49;93520.91;;;7.06;84.99
15568;BME280;7885;42.596;23.044;2022-11-09T02:45:16;93521.19;;;7.01;87.53
15568;BME280;7885;42.596;23.044;2022-11-09T02:47:43;93516.91;;;7.00;88.75
15568;BME280;7885;42.596;23.044;2022-11-09T02:50:10;93521.63;;;7.03;88.84
15568;BME280;7885;42.596;23.044;2022-11-09T02:52:37;93501.09;;;6.83;84.99
15568;BME280;7885;42.596;23.044;2022-11-09T02:55:04;93521.34;;;6.89;83.57
15568;BME280;7885;42.596;23.044;2022-11-09T02:57:32;93508.50;;;6.67;84.75
15568;BME280;7885;42.596;23.044;2022-11-09T02:59:59;93517.91;;;6.73;86.84
15568;BME280;7885;42.596;23.044;2022-11-09T03:02:26;93518.06;;;6.80;88.28
15568;BME280;7885;42.596;23.044;2022-11-09T03:04:53;93529.66;;;6.80;89.82
15568;BME280;7885;42.596;23.044;2022-11-09T03:07:19;93523.47;;;6.80;90.45
15568;BME280;7885;42.596;23.044;2022-11-09T03:09:46;93529.59;;;6.77;90.78
15568;BME280;7885;42.596;23.044;2022-11-09T03:12:13;93500.69;;;6.62;91.86
15568;BME280;7885;42.596;23.044;2022-11-09T03:14:56;93529.81;;;6.87;92.64
15568;BME280;7885;42.596;23.044;2022-11-09T03:17:23;93529.81;;;6.87;90.74
15568;BME280;7885;42.596;23.044;2022-11-09T03:19:51;93525.75;;;6.78;86.93
15568;BME280;7885;42.596;23.044;2022-11-09T03:22:18;93535.56;;;6.67;86.98
15568;BME280;7885;42.596;23.044;2022-11-09T03:24:45;93536.28;;;6.64;89.57
15568;BME280;7885;42.596;23.044;2022-11-09T03:27:12;93541.03;;;6.70;90.18
15568;BME280;7885;42.596;23.044;2022-11-09T03:29:39;93529.34;;;6.66;89.55
15568;BME280;7885;42.596;23.044;2022-11-09T03:32:08;93491.69;;;6.38;88.23
15568;BME280;7885;42.596;23.044;2022-11-09T03:34:34;93522.34;;;6.62;87.77
15568;BME280;7885;42.596;23.044;2022-11-09T03:37:01;93493.41;;;6.46;88.66
15568;BME280;7885;42.596;23.044;2022-11-09T03:39:28;93538.84;;;6.76;87.79
15568;BME280;7885;42.596;23.044;2022-11-09T03:41:55;93530.31;;;6.74;88.32
15568;BME280;7885;42.596;23.044;2022-11-09T03:44:21;93535.00;;;6.77;89.23
15568;BME280;7885;42.596;23.044;2022-11-09T03:46:48;93500.53;;;6.54;88.67
15568;BME280;7885;42.596;23.044;2022-11-09T03:49:16;93532.28;;;6.77;88.74
15568;BME280;7885;42.596;23.044;2022-11-09T03:51:43;93543.13;;;6.96;91.35
15568;BME280;7885;42.596;23.044;2022-11-09T03:54:10;93550.16;;;7.00;91.11
15568;BME280;7885;42.596;23.044;2022-11-09T03:56:36;93547.03;;;6.98;91.42
15568;BME280;7885;42.596;23.044;2022-11-09T03:59:03;93547.91;;;7.02;90.43
15568;BME280;7885;42.596;23.044;2022-11-09T04:01:30;93552.09;;;7.00;89.34
15568;BME280;7885;42.596;23.044;2022-11-09T04:03:57;93544.75;;;7.00;88.71
15568;BME280;7885;42.596;23.044;2022-11-09T04:06:25;93554.69;;;6.93;86.79
15568;BME280;7885;42.596;23.044;2022-11-09T04:08:52;93550.66;;;6.87;87.55
15568;BME280;7885;42.596;23.044;2022-11-09T04:11:18;93541.69;;;6.83;89.16
15568;BME280;7885;42.596;23.044;2022-11-09T04:13:45;93502.94;;;6.59;89.88
15568;BME280;7885;42.596;23.044;2022-11-09T04:16:12;93523.88;;;6.63;90.09
15568;BME280;7885;42.596;23.044;2022-11-09T04:18:39;93555.91;;;6.80;90.95
15568;BME280;7885;42.596;23.044;2022-11-09T04:21:06;93548.09;;;6.75;92.22
15568;BME280;7885;42.596;23.044;2022-11-09T04:23:34;93452.03;;;6.07;92.00
15568;BME280;7885;42.596;23.044;2022-11-09T04:26:01;93554.50;;;6.67;91.52
15568;BME280;7885;42.596;23.044;2022-11-09T04:28:28;93551.47;;;6.52;88.99
15568;BME280;7885;42.596;23.044;2022-11-09T04:30:59;93540.66;;;6.52;88.22
15568;BME280;7885;42.596;23.044;2022-11-09T04:33:26;93560.19;;;6.62;88.07
15568;BME280;7885;42.596;23.044;2022-11-09T04:35:53;93548.13;;;6.59;89.61
15568;BME280;7885;42.596;23.044;2022-11-09T04:38:20;93539.31;;;6.62;90.83
15568;BME280;7885;42.596;23.044;2022-11-09T04:40:48;93554.16;;;6.68;92.01
15568;BME280;7885;42.596;23.044;2022-11-09T04:43:15;93520.94;;;6.52;92.36
15568;BME280;7885;42.596;23.044;2022-11-09T04:45:41;93553.84;;;6.73;93.32
15568;BME280;7885;42.596;23.044;2022-11-09T04:48:09;93557.28;;;6.70;93.90
15568;BME280;7885;42.596;23.044;2022-11-09T04:50:36;93558.22;;;6.78;95.11
15568;BME280;7885;42.596;23.044;2022-11-09T04:53:08;93506.94;;;6.46;95.45
15568;BME280;7885;42.596;23.044;2022-11-09T04:55:35;93530.00;;;6.59;95.52
15568;BME280;7885;42.596;23.044;2022-11-09T04:58:04;93535.56;;;6.67;95.96
15568;BME280;7885;42.596;23.044;2022-11-09T05:00:31;93557.50;;;6.81;95.43
15568;BME280;7885;42.596;23.044;2022-11-09T05:02:59;93558.50;;;6.92;95.35
15568;BME280;7885;42.596;23.044;2022-11-09T05:05:26;93561.63;;;6.94;95.73
15568;BME280;7885;42.596;23.044;2022-11-09T05:07:53;93562.06;;;6.96;95.83
15568;BME280;7885;42.596;23.044;2022-11-09T05:10:20;93529.31;;;6.82;96.26
15568;BME280;7885;42.596;23.044;2022-11-09T05:12:47;93568.91;;;7.09;96.60
15568;BME280;7885;42.596;23.044;2022-11-09T05:15:15;93576.00;;;7.17;96.08
15568;BME280;7885;42.596;23.044;2022-11-09T05:17:42;93540.78;;;6.94;96.06
15568;BME280;7885;42.596;23.044;2022-11-09T05:20:09;93576.16;;;7.24;96.11
15568;BME280;7885;42.596;23.044;2022-11-09T05:22:39;93577.09;;;7.32;96.11
15568;BME280;7885;42.596;23.044;2022-11-09T05:25:23;93547.41;;;7.16;96.58
15568;BME280;7885;42.596;23.044;2022-11-09T05:27:50;93586.53;;;7.41;96.88
15568;BME280;7885;42.596;23.044;2022-11-09T05:30:19;93528.59;;;7.04;96.74
15568;BME280;7885;42.596;23.044;2022-11-09T05:32:46;93560.56;;;7.37;97.07
15568;BME280;7885;42.596;23.044;2022-11-09T05:35:13;93542.91;;;7.24;96.88
15568;BME280;7885;42.596;23.044;2022-11-09T05:37:39;93577.41;;;7.49;97.34
15568;BME280;7885;42.596;23.044;2022-11-09T05:40:07;93588.25;;;7.49;98.59
15568;BME280;7885;42.596;23.044;2022-11-09T05:42:37;93590.56;;;7.47;99.01
15568;BME280;7885;42.596;23.044;2022-11-09T05:45:05;93588.38;;;7.56;99.26
15568;BME280;7885;42.596;23.044;2022-11-09T05:47:36;93536.41;;;7.28;99.25
15568;BME280;7885;42.596;23.044;2022-11-09T05:50:05;93586.72;;;7.71;99.72
15568;BME280;7885;42.596;23.044;2022-11-09T05:52:33;93595.66;;;7.72;99.86
15568;BME280;7885;42.596;23.044;2022-11-09T05:55:00;93594.19;;;7.78;100.00
15568;BME280;7885;42.596;23.044;2022-11-09T05:57:27;93590.34;;;7.79;99.98
15568;BME280;7885;42.596;23.044;2022-11-09T05:59:54;93584.16;;;7.78;99.65
15568;BME280;7885;42.596;23.044;2022-11-09T06:02:21;93592.47;;;7.89;99.36
15568;BME280;7885;42.596;23.044;2022-11-09T06:04:50;93604.75;;;8.05;99.28
15568;BME280;7885;42.596;23.044;2022-11-09T06:07:16;93604.44;;;8.10;99.22
15568;BME280;7885;42.596;23.044;2022-11-09T06:09:43;93606.47;;;8.13;99.36
15568;BME280;7885;42.596;23.044;2022-11-09T06:12:10;93611.28;;;8.24;99.02
15568;BME280;7885;42.596;23.044;2022-11-09T06:14:37;93616.06;;;8.30;99.31
15568;BME280;7885;42.596;23.044;2022-11-09T06:17:03;93616.19;;;8.37;99.51
15568;BME280;7885;42.596;23.044;2022-11-09T06:19:30;93610.03;;;8.40;99.44
15568;BME280;7885;42.596;23.044;2022-11-09T06:21:58;93615.56;;;8.47;98.80
15568;BME280;7885;42.596;23.044;2022-11-09T06:24:25;93622.97;;;8.50;98.44
15568;BME280;7885;42.596;23.044;2022-11-09T06:26:52;93622.69;;;8.59;98.72
15568;BME280;7885;42.596;23.044;2022-11-09T06:29:18;93625.06;;;8.60;98.32
15568;BME280;7885;42.596;23.044;2022-11-09T06:31:45;93624.31;;;8.63;98.00
15568;BME280;7885;42.596;23.044;2022-11-09T06:34:13;93611.78;;;8.55;97.93
15568;BME280;7885;42.596;23.044;2022-11-09T06:36:40;93608.63;;;8.50;97.83
15568;BME280;7885;42.596;23.044;2022-11-09T06:39:08;93624.03;;;8.69;97.24
15568;BME280;7885;42.596;23.044;2022-11-09T06:41:35;93632.97;;;8.73;97.37
15568;BME280;7885;42.596;23.044;2022-11-09T06:44:02;93632.34;;;8.83;97.08
15568;BME280;7885;42.596;23.044;2022-11-09T06:46:30;93620.84;;;8.89;96.94
15568;BME280;7885;42.596;23.044;2022-11-09T06:48:56;93626.41;;;9.00;96.64
15568;BME280;7885;42.596;23.044;2022-11-09T06:54:49;93587.84;;;8.87;95.91
15568;BME280;7885;42.596;23.044;2022-11-09T06:57:19;93629.09;;;9.26;95.76
15568;BME280;7885;42.596;23.044;2022-11-09T06:59:46;93580.72;;;9.05;95.32
15568;BME280;7885;42.596;23.044;2022-11-09T07:02:14;93612.81;;;9.26;94.99
15568;BME280;7885;42.596;23.044;2022-11-09T07:04:42;93631.69;;;9.49;94.38
15568;BME280;7885;42.596;23.044;2022-11-09T07:07:09;93636.44;;;9.55;94.07
15568;BME280;7885;42.596;23.044;2022-11-09T07:09:35;93626.41;;;9.59;93.89
15568;BME280;7885;42.596;23.044;2022-11-09T07:12:04;93598.31;;;9.48;93.46
15568;BME280;7885;42.596;23.044;2022-11-09T07:14:31;93569.09;;;9.38;92.70
15568;BME280;7885;42.596;23.044;2022-11-09T07:16:58;93620.47;;;9.84;91.78
15568;BME280;7885;42.596;23.044;2022-11-09T07:19:25;93581.88;;;9.71;91.65
15568;BME280;7885;42.596;23.044;2022-11-09T07:21:52;93551.09;;;9.60;90.66
15568;BME280;7885;42.596;23.044;2022-11-09T07:24:19;93629.34;;;10.14;90.05
15568;BME280;7885;42.596;23.044;2022-11-09T07:26:46;93624.31;;;10.16;90.26
15568;BME280;7885;42.596;23.044;2022-11-09T07:29:15;93623.13;;;10.13;90.33
15568;BME280;7885;42.596;23.044;2022-11-09T07:31:41;93593.50;;;10.05;90.15
15568;BME280;7885;42.596;23.044;2022-11-09T07:34:08;93569.31;;;9.93;89.75
15568;BME280;7885;42.596;23.044;2022-11-09T07:36:35;93627.19;;;10.30;89.18
15568;BME280;7885;42.596;23.044;2022-11-09T07:39:02;93631.88;;;10.33;89.64
15568;BME280;7885;42.596;23.044;2022-11-09T07:41:29;93614.69;;;10.26;89.10
15568;BME280;7885;42.596;23.044;2022-11-09T07:47:26;93619.94;;;10.48;89.77
15568;BME280;7885;42.596;23.044;2022-11-09T07:49:53;93618.03;;;10.52;89.67
15568;BME280;7885;42.596;23.044;2022-11-09T07:52:20;93619.69;;;10.64;89.52
15568;BME280;7885;42.596;23.044;2022-11-09T07:54:46;93561.16;;;10.37;88.66
15568;BME280;7885;42.596;23.044;2022-11-09T07:57:13;93622.22;;;10.94;88.34
15568;BME280;7885;42.596;23.044;2022-11-09T07:59:40;93627.41;;;11.13;87.08
15568;BME280;7885;42.596;23.044;2022-11-09T08:05:30;93596.69;;;11.16;86.08
15568;BME280;7885;42.596;23.044;2022-11-09T08:07:58;93634.22;;;11.47;85.12
15568;BME280;7885;42.596;23.044;2022-11-09T08:10:27;93624.84;;;11.45;84.11
15568;BME280;7885;42.596;23.044;2022-11-09T08:12:55;93602.25;;;11.37;84.18
15568;BME280;7885;42.596;23.044;2022-11-09T08:15:22;93629.63;;;11.65;84.19
15568;BME280;7885;42.596;23.044;2022-11-09T08:17:49;93634.38;;;11.79;84.06
15568;BME280;7885;42.596;23.044;2022-11-09T08:20:17;93637.56;;;11.92;83.30
15568;BME280;7885;42.596;23.044;2022-11-09T08:22:46;93624.72;;;11.99;83.57
15568;BME280;7885;42.596;23.044;2022-11-09T08:25:13;93634.44;;;12.04;82.32
15568;BME280;7885;42.596;23.044;2022-11-09T08:27:40;93588.81;;;11.83;82.01
15568;BME280;7885;42.596;23.044;2022-11-09T08:30:10;93635.28;;;12.15;81.96
15568;BME280;7885;42.596;23.044;2022-11-09T08:32:38;93629.81;;;12.15;81.86
15568;BME280;7885;42.596;23.044;2022-11-09T08:35:06;93631.00;;;12.21;82.17
15568;BME280;7885;42.596;23.044;2022-11-09T08:37:34;93632.94;;;12.24;82.13
15568;BME280;7885;42.596;23.044;2022-11-09T08:40:03;93634.13;;;12.30;81.61
15568;BME280;7885;42.596;23.044;2022-11-09T08:42:31;93641.56;;;12.33;81.39
15568;BME280;7885;42.596;23.044;2022-11-09T08:44:57;93640.38;;;12.38;81.00
15568;BME280;7885;42.596;23.044;2022-11-09T08:47:24;93634.53;;;12.46;81.95
15568;BME280;7885;42.596;23.044;2022-11-09T08:49:51;93636.13;;;12.54;81.90
15568;BME280;7885;42.596;23.044;2022-11-09T08:52:18;93633.41;;;12.65;81.05
15568;BME280;7885;42.596;23.044;2022-11-09T08:54:44;93633.00;;;12.81;80.56
15568;BME280;7885;42.596;23.044;2022-11-09T08:57:13;93644.72;;;13.09;80.17
15568;BME280;7885;42.596;23.044;2022-11-09T08:59:39;93568.22;;;12.88;79.19
15568;BME280;7885;42.596;23.044;2022-11-09T09:02:08;93614.59;;;13.38;78.75
15568;BME280;7885;42.596;23.044;2022-11-09T09:04:35;93647.31;;;13.70;77.11
15568;BME280;7885;42.596;23.044;2022-11-09T09:07:01;93641.44;;;13.75;76.25
15568;BME280;7885;42.596;23.044;2022-11-09T09:09:28;93650.00;;;13.84;76.21
15568;BME280;7885;42.596;23.044;2022-11-09T09:11:55;93644.19;;;13.75;75.72
15568;BME280;7885;42.596;23.044;2022-11-09T09:14:23;93646.91;;;13.78;75.89
15568;BME280;7885;42.596;23.044;2022-11-09T09:16:50;93640.19;;;13.90;75.96
15568;BME280;7885;42.596;23.044;2022-11-09T09:19:17;93642.06;;;14.14;76.20
15568;BME280;7885;42.596;23.044;2022-11-09T09:21:43;93641.97;;;14.32;75.00
15568;BME280;7885;42.596;23.044;2022-11-09T09:24:10;93635.09;;;14.02;75.01
15568;BME280;7885;42.596;23.044;2022-11-09T09:26:37;93648.72;;;14.13;75.31
15568;BME280;7885;42.596;23.044;2022-11-09T09:29:04;93645.56;;;14.18;75.72
15568;BME280;7885;42.596;23.044;2022-11-09T09:31:32;93649.06;;;14.22;75.18
15568;BME280;7885;42.596;23.044;2022-11-09T09:33:59;93645.50;;;14.36;74.74
15568;BME280;7885;42.596;23.044;2022-11-09T09:36:25;93623.25;;;14.23;74.42
15568;BME280;7885;42.596;23.044;2022-11-09T09:38:53;93639.47;;;14.58;74.19
15568;BME280;7885;42.596;23.044;2022-11-09T09:41:22;93629.97;;;14.74;72.94
15568;BME280;7885;42.596;23.044;2022-11-09T09:47:16;93629.00;;;15.80;70.24
15568;BME280;7885;42.596;23.044;2022-11-09T09:49:48;93622.78;;;16.36;68.61
15568;BME280;7885;42.596;23.044;2022-11-09T09:52:22;93620.53;;;17.08;66.06
15568;BME280;7885;42.596;23.044;2022-11-09T09:54:57;93620.78;;;17.63;63.03
15568;BME280;7885;42.596;23.044;2022-11-09T09:57:27;93619.84;;;18.29;60.90
15568;BME280;7885;42.596;23.044;2022-11-09T09:59:59;93611.03;;;18.74;59.45
15568;BME280;7885;42.596;23.044;2022-11-09T10:02:29;93611.03;;;19.83;56.98
15568;BME280;7885;42.596;23.044;2022-11-09T10:05:00;93602.75;;;21.29;52.01
15568;BME280;7885;42.596;23.044;2022-11-09T10:07:31;93599.59;;;23.13;45.88
15568;BME280;7885;42.596;23.044;2022-11-09T10:10:15;93531.63;;;24.27;40.84
15568;BME280;7885;42.596;23.044;2022-11-09T10:12:57;93595.81;;;26.30;36.85
15568;BME280;7885;42.596;23.044;2022-11-09T10:15:30;93595.41;;;27.39;34.00
15568;BME280;7885;42.596;23.044;2022-11-09T10:18:23;93595.50;;;27.80;32.65
15568;BME280;7885;42.596;23.044;2022-11-09T10:21:10;93590.47;;;28.44;31.57
15568;BME280;7885;42.596;23.044;2022-11-09T10:23:52;93561.06;;;28.34;30.73
15568;BME280;7885;42.596;23.044;2022-11-09T10:26:29;93586.25;;;29.37;30.01
15568;BME280;7885;42.596;23.044;2022-11-09T10:29:01;93567.88;;;29.79;28.52
15568;BME280;7885;42.596;23.044;2022-11-09T10:31:30;93566.81;;;30.24;27.51
15568;BME280;7885;42.596;23.044;2022-11-09T10:34:02;93550.63;;;30.62;26.53
15568;BME280;7885;42.596;23.044;2022-11-09T10:36:32;93579.06;;;31.08;26.77
15568;BME280;7885;42.596;23.044;2022-11-09T10:39:03;93576.22;;;31.14;26.38
15568;BME280;7885;42.596;23.044;2022-11-09T10:41:33;93569.31;;;31.65;25.65
15568;BME280;7885;42.596;23.044;2022-11-09T10:44:00;93566.34;;;32.26;24.65
15568;BME280;7885;42.596;23.044;2022-11-09T10:46:27;93555.69;;;32.60;23.81
15568;BME280;7885;42.596;23.044;2022-11-09T10:48:54;93563.97;;;32.35;24.03
15568;BME280;7885;42.596;23.044;2022-11-09T10:51:34;93551.06;;;31.93;24.51
15568;BME280;7885;42.596;23.044;2022-11-09T10:54:14;93564.56;;;32.17;23.96
15568;BME280;7885;42.596;23.044;2022-11-09T10:56:46;93550.53;;;32.12;24.15
15568;BME280;7885;42.596;23.044;2022-11-09T10:59:39;93556.69;;;32.57;23.60
15568;BME280;7885;42.596;23.044;2022-11-09T11:02:41;93556.94;;;32.01;23.77
15568;BME280;7885;42.596;23.044;2022-11-09T11:05:38;93543.63;;;32.07;24.38
15568;BME280;7885;42.596;23.044;2022-11-09T11:08:28;93535.41;;;32.03;23.90
15568;BME280;7885;42.596;23.044;2022-11-09T11:11:25;93547.16;;;32.19;24.06
15568;BME280;7885;42.596;23.044;2022-11-09T11:14:09;93539.13;;;31.60;24.46
15568;BME280;7885;42.596;23.044;2022-11-09T11:16:37;93522.66;;;30.19;25.93
15568;BME280;7885;42.596;23.044;2022-11-09T11:19:04;93499.47;;;29.71;26.78
15568;BME280;7885;42.596;23.044;2022-11-09T11:21:31;93452.78;;;28.20;28.14
15568;BME280;7885;42.596;23.044;2022-11-09T11:24:13;93522.16;;;27.35;30.60
15568;BME280;7885;42.596;23.044;2022-11-09T11:26:52;93522.16;;;26.86;31.92
15568;BME280;7885;42.596;23.044;2022-11-09T11:29:44;93525.38;;;26.49;33.00
15568;BME280;7885;42.596;23.044;2022-11-09T11:32:15;93505.88;;;26.11;33.29
15568;BME280;7885;42.596;23.044;2022-11-09T11:34:42;93514.81;;;26.00;33.91
15568;BME280;7885;42.596;23.044;2022-11-09T11:37:23;93511.63;;;25.93;34.00
15568;BME280;7885;42.596;23.044;2022-11-09T11:39:59;93509.47;;;25.73;34.66
15568;BME280;7885;42.596;23.044;2022-11-09T11:42:52;93469.69;;;25.25;35.05
15568;BME280;7885;42.596;23.044;2022-11-09T11:45:27;93464.19;;;25.16;34.97
15568;BME280;7885;42.596;23.044;2022-11-09T11:48:19;93463.69;;;25.18;34.96
15568;BME280;7885;42.596;23.044;2022-11-09T11:50:52;93500.69;;;25.42;35.36
15568;BME280;7885;42.596;23.044;2022-11-09T11:53:32;93489.78;;;25.05;35.97
15568;BME280;7885;42.596;23.044;2022-11-09T11:56:17;93480.59;;;25.14;35.82
15568;BME280;7885;42.596;23.044;2022-11-09T11:59:37;93478.63;;;25.29;35.60
15568;BME280;7885;42.596;23.044;2022-11-09T12:02:34;93489.53;;;25.66;35.20
15568;BME280;7885;42.596;23.044;2022-11-09T12:05:27;93489.53;;;25.42;35.46
15568;BME280;7885;42.596;23.044;2022-11-09T12:11:29;93479.41;;;25.53;35.79
15568;BME280;7885;42.596;23.044;2022-11-09T12:14:06;93495.25;;;25.71;35.60
15568;BME280;7885;42.596;23.044;2022-11-09T12:16:41;93481.41;;;25.77;35.05
15568;BME280;7885;42.596;23.044;2022-11-09T12:19:34;93480.38;;;25.89;34.40
15568;BME280;7885;42.596;23.044;2022-11-09T12:22:10;93442.06;;;25.75;34.62
15568;BME280;7885;42.596;23.044;2022-11-09T12:24:48;93472.28;;;25.91;34.43
15568;BME280;7885;42.596;23.044;2022-11-09T12:27:32;93477.72;;;25.71;34.83
15568;BME280;7885;42.596;23.044;2022-11-09T12:30:05;93467.66;;;25.49;35.30
15568;BME280;7885;42.596;23.044;2022-11-09T12:32:39;93480.44;;;25.80;35.46
15568;BME280;7885;42.596;23.044;2022-11-09T12:35:27;93463.63;;;25.89;34.71
15568;BME280;7885;42.596;23.044;2022-11-09T12:38:01;93398.19;;;25.22;35.17
15568;BME280;7885;42.596;23.044;2022-11-09T12:40:32;93452.63;;;25.71;35.55
15568;BME280;7885;42.596;23.044;2022-11-09T12:43:08;93468.88;;;25.57;36.00
15568;BME280;7885;42.596;23.044;2022-11-09T12:45:40;93455.22;;;25.36;36.55
15568;BME280;7885;42.596;23.044;2022-11-09T12:48:12;93462.09;;;25.26;36.51
15568;BME280;7885;42.596;23.044;2022-11-09T12:50:42;93382.25;;;24.75;36.67
15568;BME280;7885;42.596;23.044;2022-11-09T12:53:09;93416.69;;;24.87;37.01
15568;BME280;7885;42.596;23.044;2022-11-09T12:55:44;93452.69;;;24.99;37.19
15568;BME280;7885;42.596;23.044;2022-11-09T12:58:25;93442.91;;;24.71;37.53
15568;BME280;7885;42.596;23.044;2022-11-09T13:00:55;93407.06;;;24.31;38.68
15568;BME280;7885;42.596;23.044;2022-11-09T13:03:24;93449.97;;;24.48;38.47
15568;BME280;7885;42.596;23.044;2022-11-09T13:06:13;93448.13;;;24.45;38.86
15568;BME280;7885;42.596;23.044;2022-11-09T13:08:43;93450.94;;;24.36;38.95
15568;BME280;7885;42.596;23.044;2022-11-09T13:11:21;93448.97;;;24.28;39.29
15568;BME280;7885;42.596;23.044;2022-11-09T13:13:49;93448.19;;;24.27;39.08
15568;BME280;7885;42.596;23.044;2022-11-09T13:16:33;93430.78;;;24.08;39.38
15568;BME280;7885;42.596;23.044;2022-11-09T13:19:01;93411.53;;;23.78;39.93
15568;BME280;7885;42.596;23.044;2022-11-09T13:21:34;93396.13;;;23.49;40.29
15568;BME280;7885;42.596;23.044;2022-11-09T13:27:39;93401.06;;;23.18;41.55
15568;BME280;7885;42.596;23.044;2022-11-09T13:30:39;93441.50;;;23.19;42.47
15568;BME280;7885;42.596;23.044;2022-11-09T13:33:23;93444.38;;;22.88;43.24
15568;BME280;7885;42.596;23.044;2022-11-09T13:35:58;93438.41;;;22.59;43.73
15568;BME280;7885;42.596;23.044;2022-11-09T13:38:27;93446.25;;;22.51;44.39
15568;BME280;7885;42.596;23.044;2022-11-09T13:40:55;93418.97;;;22.41;44.87
15568;BME280;7885;42.596;23.044;2022-11-09T13:43:24;93438.72;;;22.52;44.95
15568;BME280;7885;42.596;23.044;2022-11-09T13:45:54;93411.00;;;22.21;44.98
15568;BME280;7885;42.596;23.044;2022-11-09T13:48:40;93451.75;;;22.33;45.41
15568;BME280;7885;42.596;23.044;2022-11-09T13:51:10;93416.06;;;22.13;45.50
15568;BME280;7885;42.596;23.044;2022-11-09T13:53:50;93451.66;;;22.15;45.97
15568;BME280;7885;42.596;23.044;2022-11-09T14:03:14;93423.75;;;21.57;47.54